createdAt,value
2023-01-05T00:00:54.124Z,993.27
2023-01-05T00:01:54.188Z,993.31
2023-01-05T00:02:54.081Z,993.06
2023-01-05T00:03:54.146Z,993.14
2023-01-05T00:04:54.080Z,993.16
2023-01-05T00:05:54.088Z,993.52
2023-01-05T00:06:54.124Z,993.59
2023-01-05T00:07:54.083Z,993.27
2023-01-05T00:08:54.132Z,993.25
2023-01-05T00:09:54.087Z,993
2023-01-05T00:10:54.091Z,992.46
2023-01-05T00:11:54.110Z,992.11
2023-01-05T00:12:54.099Z,991.78
2023-01-05T00:13:54.119Z,991.72
2023-01-05T00:14:54.091Z,991.2
2023-01-05T00:15:54.101Z,991.28
2023-01-05T00:16:54.123Z,990.6
2023-01-05T00:17:54.097Z,990.04
2023-01-05T00:18:54.147Z,989.66
2023-01-05T00:19:54.100Z,989.45
2023-01-05T00:20:54.113Z,989.11
2023-01-05T00:21:54.106Z,988.4
2023-01-05T00:22:54.143Z,988.22
2023-01-05T00:23:54.113Z,987.93
2023-01-05T00:24:54.153Z,987.73
2023-01-05T00:25:54.115Z,987.71
2023-01-05T00:26:54.118Z,987.41
2023-01-05T00:27:54.262Z,987.53
2023-01-05T00:28:54.115Z,987.28
2023-01-05T00:29:54.125Z,987.58
2023-01-05T00:30:54.119Z,987.32
2023-01-05T00:31:54.159Z,987.2
2023-01-05T00:32:54.132Z,987.34
2023-01-05T00:33:54.137Z,986.97
2023-01-05T00:34:54.124Z,986.9
2023-01-05T00:35:54.124Z,986.38
2023-01-05T00:36:54.139Z,986.06
2023-01-05T00:37:54.138Z,985.71
2023-01-05T00:38:54.266Z,985.29
2023-01-05T00:39:54.142Z,985.34
2023-01-05T00:40:54.162Z,984.99
2023-01-05T00:41:54.148Z,985.13
2023-01-05T00:42:54.150Z,984.9
2023-01-05T00:43:54.145Z,984.9
2023-01-05T00:44:54.151Z,984.95
2023-01-05T00:45:54.236Z,984.72
2023-01-05T00:46:54.147Z,984.93
2023-01-05T00:47:54.172Z,984.84
2023-01-05T00:48:54.150Z,984.51
2023-01-05T00:49:54.170Z,984.39
2023-01-05T00:50:54.150Z,984.2
2023-01-05T00:51:54.151Z,983.75
2023-01-05T00:52:54.162Z,983.67
2023-01-05T00:53:54.153Z,982.83
2023-01-05T00:54:54.167Z,982.21
2023-01-05T00:55:54.168Z,981.88
2023-01-05T00:56:54.252Z,981.4
2023-01-05T00:57:54.167Z,980.8
2023-01-05T00:58:54.171Z,980.31
2023-01-05T00:59:54.176Z,979.78
2023-01-05T01:00:54.201Z,979.69
2023-01-05T01:01:54.213Z,979.16
2023-01-05T01:02:54.234Z,978.35
2023-01-05T01:03:54.176Z,978.13
2023-01-05T01:04:54.180Z,977.65
2023-01-05T01:05:54.182Z,977.47
2023-01-05T01:06:54.186Z,976.77
2023-01-05T01:07:54.363Z,976.27
2023-01-05T01:08:54.185Z,976.12
2023-01-05T01:09:54.200Z,975.61
2023-01-05T01:10:54.203Z,975.3
2023-01-05T01:11:54.194Z,974.72
2023-01-05T01:12:54.353Z,974.05
2023-01-05T01:13:54.196Z,973.97
2023-01-05T01:14:54.187Z,973.62
2023-01-05T01:15:54.203Z,973.44
2023-01-05T01:16:54.277Z,973.38
2023-01-05T01:17:54.196Z,973.15
2023-01-05T01:18:57.024Z,973.34
2023-01-05T01:19:54.202Z,973.25
2023-01-05T01:20:54.204Z,972.96
2023-01-05T01:21:54.203Z,973.04
2023-01-05T01:22:54.211Z,973.19
2023-01-05T01:23:54.212Z,972.81
2023-01-05T01:24:54.215Z,972.84
2023-01-05T01:25:54.207Z,972.73
2023-01-05T01:26:54.219Z,972.82
2023-01-05T01:27:54.210Z,972.92
2023-01-05T01:28:54.249Z,973.22
2023-01-05T01:29:54.233Z,972.96
2023-01-05T01:30:54.264Z,973.11
2023-01-05T01:31:54.223Z,972.92
2023-01-05T01:32:54.218Z,973.26
2023-01-05T01:33:54.272Z,973.33
2023-01-05T01:34:54.220Z,973.19
2023-01-05T01:35:54.223Z,973.13
2023-01-05T01:36:54.237Z,973.55
2023-01-05T01:37:54.228Z,973.34
2023-01-05T01:38:54.228Z,973.32
2023-01-05T01:39:54.238Z,973.54
2023-01-05T01:40:54.230Z,974.18
2023-01-05T01:41:54.232Z,974.1
2023-01-05T01:42:54.234Z,974.58
2023-01-05T01:43:54.246Z,974.71
2023-01-05T01:44:54.262Z,975.24
2023-01-05T01:45:54.252Z,975.46
2023-01-05T01:46:54.254Z,975.47
2023-01-05T01:47:54.241Z,975.75
2023-01-05T01:48:54.244Z,976.12
2023-01-05T01:49:54.251Z,976.61
2023-01-05T01:50:54.256Z,976.68
2023-01-05T01:51:54.254Z,976.72
2023-01-05T01:52:54.253Z,977.13
2023-01-05T01:53:54.253Z,977.53
2023-01-05T01:54:54.261Z,977.28
2023-01-05T01:55:54.263Z,977.63
2023-01-05T01:56:54.271Z,977.69
2023-01-05T01:57:54.263Z,978.07
2023-01-05T01:58:54.268Z,978.56
2023-01-05T01:59:54.266Z,978.63
2023-01-05T02:00:54.334Z,979.02
2023-01-05T02:01:57.144Z,979.1
2023-01-05T02:02:54.306Z,979.23
2023-01-05T02:03:54.278Z,979.63
2023-01-05T02:04:54.305Z,980.03
2023-01-05T02:05:54.289Z,980
2023-01-05T02:06:54.283Z,980.02
2023-01-05T02:07:54.290Z,980.54
2023-01-05T02:08:54.284Z,980.57
2023-01-05T02:09:54.286Z,981.06
2023-01-05T02:10:54.287Z,980.87
2023-01-05T02:11:54.284Z,981.42
2023-01-05T02:12:57.380Z,981.42
2023-01-05T02:13:54.291Z,981.73
2023-01-05T02:14:54.287Z,981.64
2023-01-05T02:15:54.295Z,981.72
2023-01-05T02:16:54.351Z,982.09
2023-01-05T02:17:54.301Z,982.42
2023-01-05T02:18:54.297Z,982.93
2023-01-05T02:19:54.302Z,982.76
2023-01-05T02:20:54.309Z,982.58
2023-01-05T02:21:54.300Z,983.35
2023-01-05T02:22:54.304Z,983.38
2023-01-05T02:23:57.134Z,983.42
2023-01-05T02:24:54.305Z,983.88
2023-01-05T02:25:54.310Z,984.03
2023-01-05T02:26:54.312Z,984.6
2023-01-05T02:27:54.314Z,984.43
2023-01-05T02:28:54.310Z,984.54
2023-01-05T02:29:54.344Z,984.88
2023-01-05T02:30:54.413Z,985.11
2023-01-05T02:31:54.318Z,985.29
2023-01-05T02:32:54.339Z,985.6
2023-01-05T02:33:54.324Z,985.4
2023-01-05T02:34:54.349Z,985.92
2023-01-05T02:35:54.320Z,986.03
2023-01-05T02:36:54.327Z,986.4
2023-01-05T02:37:54.333Z,986.36
2023-01-05T02:38:54.332Z,986.4
2023-01-05T02:39:54.357Z,986.56
2023-01-05T02:40:54.335Z,987.46
2023-01-05T02:41:54.332Z,986.94
2023-01-05T02:42:54.339Z,987.08
2023-01-05T02:43:54.337Z,987.44
2023-01-05T02:44:54.375Z,987.46
2023-01-05T02:45:54.347Z,987.66
2023-01-05T02:46:54.341Z,987.54
2023-01-05T02:47:54.349Z,987.59
2023-01-05T02:48:54.367Z,987.95
2023-01-05T02:49:54.380Z,988.2
2023-01-05T02:50:54.350Z,988.05
2023-01-05T02:51:54.354Z,988.3
2023-01-05T02:52:54.354Z,988.37
2023-01-05T02:53:54.368Z,988.96
2023-01-05T02:54:54.387Z,989.11
2023-01-05T02:55:54.352Z,989.32
2023-01-05T02:56:54.365Z,990.04
2023-01-05T02:57:54.361Z,990.37
2023-01-05T02:58:54.374Z,990.75
2023-01-05T02:59:54.390Z,991.63
2023-01-05T03:00:54.384Z,991.97
2023-01-05T03:01:54.478Z,992.5
2023-01-05T03:02:54.714Z,992.57
2023-01-05T03:03:54.382Z,993.04
2023-01-05T03:04:54.428Z,993.06
2023-01-05T03:05:54.399Z,993.85
2023-01-05T03:06:54.395Z,993.63
2023-01-05T03:07:54.381Z,994.29
2023-01-05T03:08:54.391Z,994.57
2023-01-05T03:09:54.406Z,995.76
2023-01-05T03:10:54.390Z,996.05
2023-01-05T03:11:54.380Z,996.61
2023-01-05T03:12:54.387Z,997.01
2023-01-05T03:13:54.393Z,997.57
2023-01-05T03:14:54.417Z,998.05
2023-01-05T03:15:54.394Z,998.85
2023-01-05T03:16:54.388Z,999.03
2023-01-05T03:17:54.396Z,999.76
2023-01-05T03:18:54.413Z,1000.33
2023-01-05T03:19:54.439Z,1000.72
2023-01-05T03:20:54.427Z,1001
2023-01-05T03:21:54.417Z,1001.59
2023-01-05T03:22:54.404Z,1002.14
2023-01-05T03:23:54.413Z,1002.47
2023-01-05T03:24:54.445Z,1003.57
2023-01-05T03:25:54.406Z,1003.84
2023-01-05T03:26:54.407Z,1004.39
2023-01-05T03:27:54.416Z,1004.82
2023-01-05T03:28:54.430Z,1005.53
2023-01-05T03:29:54.439Z,1005.73
2023-01-05T03:30:54.431Z,1006.29
2023-01-05T03:31:54.419Z,1006.73
2023-01-05T03:32:54.423Z,1007.18
2023-01-05T03:33:54.437Z,1007.33
2023-01-05T03:34:55.285Z,1008.01
2023-01-05T03:35:54.429Z,1008.14
2023-01-05T03:36:54.448Z,1008.66
2023-01-05T03:37:54.429Z,1009.28
2023-01-05T03:38:54.422Z,1009.91
2023-01-05T03:39:54.430Z,1010.55
2023-01-05T03:40:54.436Z,1010.47
2023-01-05T03:41:54.439Z,1010.92
2023-01-05T03:42:54.428Z,1011.34
2023-01-05T03:43:54.445Z,1011.64
2023-01-05T03:44:54.433Z,1011.75
2023-01-05T03:45:57.615Z,1012.22
2023-01-05T03:46:54.444Z,1012.09
2023-01-05T03:47:54.451Z,1012.43
2023-01-05T03:48:54.453Z,1012.48
2023-01-05T03:49:54.460Z,1012.57
2023-01-05T03:50:54.464Z,1012.74
2023-01-05T03:51:54.448Z,1012.66
2023-01-05T03:52:54.521Z,1012.18
2023-01-05T03:53:54.449Z,1012.81
2023-01-05T03:54:54.464Z,1012.55
2023-01-05T03:55:54.467Z,1012.33
2023-01-05T03:56:54.475Z,1012.24
2023-01-05T03:57:54.465Z,1011.72
2023-01-05T03:58:54.461Z,1011.25
2023-01-05T03:59:54.477Z,1010.77
2023-01-05T04:00:54.466Z,1010.75
2023-01-05T04:01:54.611Z,1010.21
2023-01-05T04:02:54.598Z,1010.31
2023-01-05T04:03:54.545Z,1009.82
2023-01-05T04:04:54.472Z,1009.15
2023-01-05T04:05:54.479Z,1009.15
2023-01-05T04:06:54.472Z,1009.03
2023-01-05T04:07:54.482Z,1009.06
2023-01-05T04:08:54.559Z,1008.73
2023-01-05T04:09:54.486Z,1008.76
2023-01-05T04:10:54.481Z,1008.49
2023-01-05T04:11:54.494Z,1008.28
2023-01-05T04:12:54.493Z,1008.28
2023-01-05T04:13:54.480Z,1008.16
2023-01-05T04:14:54.483Z,1008.27
2023-01-05T04:15:54.550Z,1008.03
2023-01-05T04:16:54.485Z,1007.97
2023-01-05T04:17:54.501Z,1007.66
2023-01-05T04:18:54.499Z,1007.78
2023-01-05T04:19:54.500Z,1007.73
2023-01-05T04:20:54.498Z,1007.45
2023-01-05T04:21:54.503Z,1007.35
2023-01-05T04:22:54.505Z,1007.75
2023-01-05T04:23:54.498Z,1007.42
2023-01-05T04:24:54.526Z,1007.63
2023-01-05T04:25:54.517Z,1007.32
2023-01-05T04:26:54.526Z,1007.29
2023-01-05T04:27:54.511Z,1006.82
2023-01-05T04:28:57.598Z,1006.61
2023-01-05T04:29:54.524Z,1006.79
2023-01-05T04:30:54.537Z,1006.46
2023-01-05T04:31:54.519Z,1006.41
2023-01-05T04:32:54.519Z,1006.28
2023-01-05T04:33:54.514Z,1005.87
2023-01-05T04:34:54.522Z,1005.88
2023-01-05T04:35:54.524Z,1005.56
2023-01-05T04:36:54.536Z,1004.99
2023-01-05T04:37:54.521Z,1004.83
2023-01-05T04:38:54.529Z,1004.62
2023-01-05T04:39:57.632Z,1004.14
2023-01-05T04:40:54.537Z,1003.99
2023-01-05T04:41:54.540Z,1003.73
2023-01-05T04:42:54.530Z,1003.27
2023-01-05T04:43:54.540Z,1003.06
2023-01-05T04:44:54.532Z,1002.4
2023-01-05T04:45:54.534Z,1001.8
2023-01-05T04:46:54.587Z,1001.62
2023-01-05T04:47:54.539Z,1001.7
2023-01-05T04:48:54.550Z,1001.63
2023-01-05T04:49:54.553Z,1001.11
2023-01-05T04:50:57.568Z,1001.4
2023-01-05T04:51:54.549Z,1000.78
2023-01-05T04:52:54.548Z,1000.16
2023-01-05T04:53:54.545Z,999.74
2023-01-05T04:54:54.556Z,999.48
2023-01-05T04:55:54.577Z,998.92
2023-01-05T04:56:54.565Z,998.59
2023-01-05T04:57:54.560Z,997.61
2023-01-05T04:58:54.570Z,997.35
2023-01-05T04:59:54.566Z,997.02
2023-01-05T05:00:54.563Z,996.72
2023-01-05T05:01:57.649Z,996.16
2023-01-05T05:02:54.739Z,995.46
2023-01-05T05:03:54.604Z,995.11
2023-01-05T05:04:54.565Z,994.86
2023-01-05T05:05:54.573Z,993.87
2023-01-05T05:06:54.573Z,993.45
2023-01-05T05:07:54.579Z,992.99
2023-01-05T05:08:54.582Z,991.91
2023-01-05T05:09:54.575Z,991.62
2023-01-05T05:10:54.585Z,991
2023-01-05T05:11:54.606Z,990.52
2023-01-05T05:12:54.577Z,989.95
2023-01-05T05:13:54.594Z,989.36
2023-01-05T05:14:54.589Z,988.84
2023-01-05T05:15:54.609Z,988.13
2023-01-05T05:16:54.605Z,987.82
2023-01-05T05:17:54.590Z,986.86
2023-01-05T05:18:54.589Z,987.03
2023-01-05T05:19:54.596Z,986.51
2023-01-05T05:20:54.593Z,985.64
2023-01-05T05:21:54.599Z,985.75
2023-01-05T05:22:54.612Z,985.38
2023-01-05T05:23:54.613Z,984.95
2023-01-05T05:24:54.617Z,984.79
2023-01-05T05:25:54.600Z,984.7
2023-01-05T05:26:54.602Z,984.77
2023-01-05T05:27:54.626Z,983.87
2023-01-05T05:28:54.611Z,983.58
2023-01-05T05:29:54.615Z,983.32
2023-01-05T05:30:54.663Z,983.31
2023-01-05T05:31:54.609Z,982.53
2023-01-05T05:32:54.630Z,981.91
2023-01-05T05:33:54.616Z,981.75
2023-01-05T05:34:54.616Z,981.81
2023-01-05T05:35:54.631Z,981.69
2023-01-05T05:36:54.631Z,981.09
2023-01-05T05:37:56.750Z,981.03
2023-01-05T05:38:54.631Z,980.36
2023-01-05T05:39:54.632Z,979.9
2023-01-05T05:40:54.691Z,979.66
2023-01-05T05:41:54.634Z,979.11
2023-01-05T05:42:54.643Z,978.68
2023-01-05T05:43:54.666Z,978.38
2023-01-05T05:44:54.630Z,977.58
2023-01-05T05:45:54.653Z,977.68
2023-01-05T05:46:54.666Z,977.05
2023-01-05T05:47:54.638Z,976.62
2023-01-05T05:48:54.643Z,976.51
2023-01-05T05:49:54.637Z,976.12
2023-01-05T05:50:54.714Z,975.6
2023-01-05T05:51:54.642Z,975.37
2023-01-05T05:52:54.653Z,974.67
2023-01-05T05:53:54.693Z,974.65
2023-01-05T05:54:54.660Z,974.3
2023-01-05T05:55:54.676Z,973.64
2023-01-05T05:56:54.657Z,973.27
2023-01-05T05:57:54.659Z,972.45
2023-01-05T05:58:59.135Z,971.87
2023-01-05T05:59:54.689Z,971.63
2023-01-05T06:00:54.681Z,971.39
2023-01-05T06:01:54.728Z,970.59
2023-01-05T06:02:54.865Z,970.7
2023-01-05T06:03:54.754Z,970.52
2023-01-05T06:04:54.664Z,970.09
2023-01-05T06:05:54.712Z,970
2023-01-05T06:06:54.674Z,969.81
2023-01-05T06:07:54.674Z,969.8
2023-01-05T06:08:54.682Z,969.74
2023-01-05T06:09:54.681Z,969.92
2023-01-05T06:10:54.696Z,969.87
2023-01-05T06:11:54.680Z,969.92
2023-01-05T06:12:57.474Z,969.35
2023-01-05T06:13:54.678Z,969.53
2023-01-05T06:14:54.683Z,969.48
2023-01-05T06:15:54.802Z,968.96
2023-01-05T06:16:54.690Z,968.71
2023-01-05T06:17:54.693Z,969.05
2023-01-05T06:18:54.687Z,968.83
2023-01-05T06:19:54.695Z,968.65
2023-01-05T06:20:59.555Z,968.31
2023-01-05T06:21:54.713Z,968.22
2023-01-05T06:22:54.703Z,967.74
2023-01-05T06:23:54.705Z,967.41
2023-01-05T06:24:54.702Z,967.42
2023-01-05T06:25:54.736Z,967.8
2023-01-05T06:26:54.707Z,967.29
2023-01-05T06:27:54.707Z,966.71
2023-01-05T06:28:54.701Z,966.52
2023-01-05T06:29:54.714Z,966.78
2023-01-05T06:30:54.738Z,966.28
2023-01-05T06:31:54.805Z,966.64
2023-01-05T06:32:54.712Z,966.36
2023-01-05T06:33:54.718Z,966.19
2023-01-05T06:34:54.720Z,966.3
2023-01-05T06:35:54.747Z,965.78
2023-01-05T06:36:57.906Z,965.79
2023-01-05T06:37:54.714Z,965.53
2023-01-05T06:38:54.716Z,965.3
2023-01-05T06:39:54.736Z,965.28
2023-01-05T06:40:54.770Z,965.09
2023-01-05T06:41:54.726Z,964.98
2023-01-05T06:42:54.727Z,964.69
2023-01-05T06:43:54.724Z,963.77
2023-01-05T06:44:54.732Z,963.26
2023-01-05T06:45:54.832Z,962.9
2023-01-05T06:46:54.730Z,962.64
2023-01-05T06:47:54.764Z,962.26
2023-01-05T06:48:54.739Z,961.73
2023-01-05T06:49:54.737Z,961.97
2023-01-05T06:50:54.759Z,961.55
2023-01-05T06:51:54.753Z,961.39
2023-01-05T06:52:54.779Z,960.69
2023-01-05T06:53:54.741Z,960.27
2023-01-05T06:54:54.743Z,959.96
2023-01-05T06:55:56.409Z,959.53
2023-01-05T06:56:54.757Z,959.07
2023-01-05T06:58:00.418Z,958.55
2023-01-05T06:58:54.749Z,958.28
2023-01-05T06:59:54.750Z,957.74
2023-01-05T07:00:54.778Z,957.31
2023-01-05T07:01:54.849Z,957.65
2023-01-05T07:02:54.759Z,957.06
2023-01-05T07:03:54.799Z,957.02
2023-01-05T07:04:54.758Z,956.78
2023-01-05T07:05:54.766Z,956.45
2023-01-05T07:06:57.649Z,956.24
2023-01-05T07:07:54.776Z,956.09
2023-01-05T07:08:54.771Z,955.91
2023-01-05T07:09:54.774Z,955.84
2023-01-05T07:10:54.796Z,955.64
2023-01-05T07:11:54.779Z,955.06
2023-01-05T07:12:54.787Z,954.38
2023-01-05T07:13:54.786Z,954.31
2023-01-05T07:14:57.630Z,953.61
2023-01-05T07:15:54.859Z,953.67
2023-01-05T07:16:54.831Z,952.85
2023-01-05T07:17:57.597Z,952.68
2023-01-05T07:18:54.782Z,952.44
2023-01-05T07:19:54.821Z,951.6
2023-01-05T07:20:54.800Z,951.56
2023-01-05T07:21:56.861Z,951.33
2023-01-05T07:22:54.788Z,951.05
2023-01-05T07:23:54.796Z,950.12
2023-01-05T07:24:54.803Z,949.88
2023-01-05T07:25:54.793Z,949.16
2023-01-05T07:26:54.814Z,949.28
2023-01-05T07:27:54.813Z,948.76
2023-01-05T07:28:54.862Z,948.64
2023-01-05T07:29:54.801Z,948.51
2023-01-05T07:30:54.800Z,948.33
2023-01-05T07:31:54.811Z,947.83
2023-01-05T07:32:54.809Z,947.5
2023-01-05T07:33:54.809Z,947.52
2023-01-05T07:34:56.069Z,946.87
2023-01-05T07:35:54.844Z,946.86
2023-01-05T07:36:54.817Z,946.56
2023-01-05T07:37:54.822Z,946.51
2023-01-05T07:38:57.636Z,946.46
2023-01-05T07:39:54.818Z,946
2023-01-05T07:40:54.827Z,945.79
2023-01-05T07:41:54.828Z,945.9
2023-01-05T07:42:54.825Z,945.93
2023-01-05T07:43:54.825Z,945.84
2023-01-05T07:44:54.835Z,945.53
2023-01-05T07:45:54.842Z,945.32
2023-01-05T07:46:54.832Z,945.27
2023-01-05T07:47:54.835Z,945.2
2023-01-05T07:48:54.831Z,945.33
2023-01-05T07:49:54.847Z,945.02
2023-01-05T07:50:54.838Z,944.89
2023-01-05T07:51:54.855Z,944.66
2023-01-05T07:52:54.839Z,944.35
2023-01-05T07:53:54.839Z,944.28
2023-01-05T07:54:54.842Z,944.16
2023-01-05T07:55:54.848Z,944.67
2023-01-05T07:56:54.850Z,944.71
2023-01-05T07:57:54.849Z,944.72
2023-01-05T07:58:54.856Z,944.3
2023-01-05T07:59:54.874Z,944.73
2023-01-05T08:00:54.918Z,944.97
2023-01-05T08:01:54.930Z,945.13
2023-01-05T08:02:54.850Z,945.23
2023-01-05T08:03:54.884Z,945.43
2023-01-05T08:04:54.863Z,945.45
2023-01-05T08:05:54.855Z,945.33
2023-01-05T08:06:54.860Z,945.25
2023-01-05T08:07:54.883Z,945.7
2023-01-05T08:08:54.878Z,945.45
2023-01-05T08:09:54.873Z,945.38
2023-01-05T08:10:54.874Z,945.47
2023-01-05T08:11:54.873Z,946.18
2023-01-05T08:12:54.870Z,946.47
2023-01-05T08:13:54.878Z,947.16
2023-01-05T08:14:54.876Z,947.64
2023-01-05T08:15:54.871Z,948.35
2023-01-05T08:16:54.993Z,949.16
2023-01-05T08:17:54.879Z,949.57
2023-01-05T08:18:54.889Z,950.06
2023-01-05T08:19:54.895Z,950.6
2023-01-05T08:20:54.884Z,951.34
2023-01-05T08:21:54.921Z,951.89
2023-01-05T08:22:54.903Z,951.78
2023-01-05T08:23:54.914Z,952.46
2023-01-05T08:24:54.902Z,952.86
2023-01-05T08:25:54.887Z,953.34
2023-01-05T08:26:54.928Z,953.18
2023-01-05T08:27:54.897Z,953.29
2023-01-05T08:28:54.905Z,953.59
2023-01-05T08:29:54.906Z,953.66
2023-01-05T08:30:54.973Z,953.97
2023-01-05T08:31:54.967Z,954.06
2023-01-05T08:32:54.903Z,954.28
2023-01-05T08:33:54.909Z,954.88
2023-01-05T08:34:55.615Z,955.08
2023-01-05T08:35:54.918Z,955.48
2023-01-05T08:36:54.917Z,955.88
2023-01-05T08:37:54.925Z,956.21
2023-01-05T08:38:54.916Z,956.38
2023-01-05T08:39:58.078Z,956.59
2023-01-05T08:40:54.920Z,956.88
2023-01-05T08:41:58.962Z,957.3
2023-01-05T08:42:54.914Z,957.49
2023-01-05T08:43:54.922Z,958.13
2023-01-05T08:44:54.923Z,958.46
2023-01-05T08:45:54.982Z,958.8
2023-01-05T08:46:54.928Z,959.24
2023-01-05T08:47:54.923Z,959.6
2023-01-05T08:48:54.925Z,960.25
2023-01-05T08:49:54.942Z,960.57
2023-01-05T08:50:54.933Z,961.1
2023-01-05T08:51:54.928Z,961.56
2023-01-05T08:52:54.932Z,962.03
2023-01-05T08:53:54.940Z,962.36
2023-01-05T08:54:54.942Z,963.07
2023-01-05T08:55:54.973Z,963.23
2023-01-05T08:56:54.959Z,963.66
2023-01-05T08:57:54.951Z,964.69
2023-01-05T08:58:54.948Z,964.67
2023-01-05T08:59:54.947Z,965.28
2023-01-05T09:00:55.046Z,965.59
2023-01-05T09:01:55.160Z,965.9
2023-01-05T09:02:55.082Z,966.03
2023-01-05T09:03:54.973Z,966.3
2023-01-05T09:04:54.978Z,966.28
2023-01-05T09:05:54.958Z,966.46
2023-01-05T09:06:54.959Z,966.53
2023-01-05T09:07:54.977Z,966.81
2023-01-05T09:08:55.033Z,967.42
2023-01-05T09:09:54.968Z,968.12
2023-01-05T09:10:54.961Z,968.27
2023-01-05T09:11:54.991Z,968.73
2023-01-05T09:12:54.976Z,969
2023-01-05T09:13:54.980Z,969.29
2023-01-05T09:14:54.978Z,969.61
2023-01-05T09:15:54.980Z,969.67
2023-01-05T09:17:06.797Z,970.02
2023-01-05T09:17:55.035Z,970.93
2023-01-05T09:18:54.980Z,971.51
2023-01-05T09:19:54.985Z,971.59
2023-01-05T09:20:54.977Z,971.94
2023-01-05T09:21:54.987Z,972.15
2023-01-05T09:22:57.811Z,972.73
2023-01-05T09:23:54.983Z,972.87
2023-01-05T09:24:54.987Z,973.71
2023-01-05T09:25:54.997Z,974.8
2023-01-05T09:26:54.988Z,975.17
2023-01-05T09:27:55.021Z,975.54
2023-01-05T09:28:54.996Z,976.36
2023-01-05T09:29:55.004Z,977.47
2023-01-05T09:30:55.026Z,978.48
2023-01-05T09:31:55.007Z,980.29
2023-01-05T09:32:55.007Z,981.59
2023-01-05T09:33:57.756Z,983.07
2023-01-05T09:34:55.015Z,984.99
2023-01-05T09:35:55.018Z,987.23
2023-01-05T09:36:55.012Z,988.6
2023-01-05T09:37:55.016Z,990.1
2023-01-05T09:38:55.025Z,991.52
2023-01-05T09:39:55.013Z,991.97
2023-01-05T09:40:55.016Z,992.83
2023-01-05T09:41:55.017Z,993.5
2023-01-05T09:42:55.014Z,993.95
2023-01-05T09:43:55.138Z,994.1
2023-01-05T09:44:59.200Z,994.67
2023-01-05T09:45:55.023Z,994.33
2023-01-05T09:46:55.045Z,994.24
2023-01-05T09:47:55.032Z,993.89
2023-01-05T09:48:55.036Z,993.27
2023-01-05T09:49:55.034Z,992.86
2023-01-05T09:50:55.089Z,992.84
2023-01-05T09:51:55.034Z,993.1
2023-01-05T09:52:55.034Z,992.89
2023-01-05T09:53:55.041Z,992.89
2023-01-05T09:54:55.039Z,993.05
2023-01-05T09:55:55.041Z,993.11
2023-01-05T09:57:11.100Z,993.32
2023-01-05T09:57:55.037Z,993.32
2023-01-05T09:58:55.045Z,993.38
2023-01-05T09:59:55.171Z,993.6
2023-01-05T10:00:55.049Z,993.99
2023-01-05T10:01:55.078Z,994.89
2023-01-05T10:02:55.118Z,995.22
2023-01-05T10:04:03.791Z,995.71
2023-01-05T10:04:55.150Z,996.61
2023-01-05T10:05:55.090Z,997.17
2023-01-05T10:06:55.080Z,997.93
2023-01-05T10:07:55.065Z,998.49
2023-01-05T10:08:55.056Z,1000.42
2023-01-05T10:09:55.065Z,1001.74
2023-01-05T10:10:55.067Z,1002.87
2023-01-05T10:11:55.098Z,1004
2023-01-05T10:12:55.063Z,1005.12
2023-01-05T10:13:55.065Z,1005.97
2023-01-05T10:14:55.071Z,1006.66
2023-01-05T10:15:55.238Z,1007.32
2023-01-05T10:17:14.928Z,1007.92
2023-01-05T10:17:55.078Z,1008.68
2023-01-05T10:18:55.077Z,1008.61
2023-01-05T10:19:55.073Z,1009.23
2023-01-05T10:20:55.098Z,1009.44
2023-01-05T10:21:55.118Z,1009.53
2023-01-05T10:22:55.082Z,1009.13
2023-01-05T10:23:55.086Z,1008.63
2023-01-05T10:24:55.087Z,1008.45
2023-01-05T10:25:56.122Z,1008.95
2023-01-05T10:27:56.974Z,1010.61
2023-01-05T10:28:55.096Z,1011.24
2023-01-05T10:29:55.097Z,1012.15
2023-01-05T10:30:55.167Z,1012.68
2023-01-05T10:31:55.236Z,1013.83
2023-01-05T10:33:09.123Z,1015.55
2023-01-05T10:34:05.508Z,1016.64
2023-01-05T10:35:01.970Z,1017.35
2023-01-05T10:36:14.473Z,1018.69
2023-01-05T10:37:12.803Z,1019.61
2023-01-05T10:38:12.788Z,1020
2023-01-05T10:39:12.771Z,1020.39
2023-01-05T10:40:12.810Z,1021.03
2023-01-05T10:41:12.775Z,1021.66
2023-01-05T10:42:12.802Z,1022.87
2023-01-05T10:43:12.791Z,1023.9
2023-01-05T10:44:12.788Z,1024.5
2023-01-05T10:45:12.798Z,1025.24
2023-01-05T10:46:32.397Z,1026.03
2023-01-05T10:47:12.887Z,1026.6
2023-01-05T10:48:12.795Z,1027.03
2023-01-05T10:49:12.794Z,1026.98
2023-01-05T10:50:12.790Z,1026.99
2023-01-05T10:51:12.791Z,1026.79
2023-01-05T10:52:12.821Z,1026.3
2023-01-05T10:53:12.836Z,1025.86
2023-01-05T10:54:12.797Z,1025.67
2023-01-05T10:55:12.810Z,1025.48
2023-01-05T10:56:12.799Z,1025.41
2023-01-05T10:57:12.870Z,1024.88
2023-01-05T10:58:12.805Z,1024.53
2023-01-05T10:59:12.809Z,1024.55
2023-01-05T11:00:12.813Z,1024.22
2023-01-05T11:01:12.887Z,1024.16
2023-01-05T11:02:12.935Z,1023.89
2023-01-05T11:03:13.016Z,1024
2023-01-05T11:04:35.586Z,1024.12
2023-01-05T11:05:33.872Z,1024.54
2023-01-05T11:06:33.816Z,1024
2023-01-05T11:07:33.845Z,1023.44
2023-01-05T11:08:33.822Z,1022.72
2023-01-05T11:09:33.825Z,1022.79
2023-01-05T11:10:33.822Z,1022.85
2023-01-05T11:11:33.828Z,1023.14
2023-01-05T11:12:33.858Z,1022.74
2023-01-05T11:13:33.855Z,1022.48
2023-01-05T11:14:33.829Z,1022.11
2023-01-05T11:15:33.884Z,1021.36
2023-01-05T11:16:33.839Z,1020.93
2023-01-05T11:17:33.857Z,1020.33
2023-01-05T11:18:33.972Z,1020.25
2023-01-05T11:19:33.838Z,1019.74
2023-01-05T11:20:33.874Z,1019.66
2023-01-05T11:21:33.843Z,1020.03
2023-01-05T11:22:33.906Z,1019.94
2023-01-05T11:23:33.841Z,1019.92
2023-01-05T11:24:33.843Z,1019.61
2023-01-05T11:25:33.864Z,1019.28
2023-01-05T11:26:36.979Z,1019.1
2023-01-05T11:27:33.868Z,1017.85
2023-01-05T11:28:33.853Z,1018.16
2023-01-05T11:29:33.858Z,1017.75
2023-01-05T11:30:33.870Z,1017.26
2023-01-05T11:31:33.952Z,1017.04
2023-01-05T11:32:33.879Z,1017.17
2023-01-05T11:33:33.860Z,1016.5
2023-01-05T11:34:33.993Z,1016.03
2023-01-05T11:35:33.869Z,1015.26
2023-01-05T11:36:33.871Z,1014.16
2023-01-05T11:37:34.594Z,1014.38
2023-01-05T11:38:33.869Z,1014.25
2023-01-05T11:39:33.875Z,1013.61
2023-01-05T11:40:33.872Z,1013.83
2023-01-05T11:41:33.880Z,1014.15
2023-01-05T11:42:33.908Z,1014.32
2023-01-05T11:43:33.929Z,1014.45
2023-01-05T11:44:33.877Z,1014.87
2023-01-05T11:45:33.884Z,1014.71
2023-01-05T11:46:33.936Z,1015.3
2023-01-05T11:47:37.982Z,1014.85
2023-01-05T11:48:36.929Z,1014.4
2023-01-05T11:49:33.889Z,1014.03
2023-01-05T11:50:34.018Z,1013.44
2023-01-05T11:51:33.895Z,1013.4
2023-01-05T11:52:33.888Z,1012.9
2023-01-05T11:53:33.922Z,1012.74
2023-01-05T11:54:33.905Z,1012.18
2023-01-05T11:55:34.027Z,1012.4
2023-01-05T11:56:33.901Z,1011.98
2023-01-05T11:57:33.909Z,1012.12
2023-01-05T11:58:33.925Z,1012.18
2023-01-05T11:59:36.669Z,1012.58
2023-01-05T12:00:33.934Z,1013.04
2023-01-05T12:01:33.971Z,1013.5
2023-01-05T12:02:34.070Z,1014.35
2023-01-05T12:03:33.981Z,1015.06
2023-01-05T12:04:33.941Z,1016.64
2023-01-05T12:05:33.928Z,1017.9
2023-01-05T12:06:34.054Z,1019.02
2023-01-05T12:07:33.948Z,1020.33
2023-01-05T12:08:33.944Z,1021.66
2023-01-05T12:09:35.267Z,1023.21
2023-01-05T12:10:33.922Z,1024.34
2023-01-05T12:11:33.930Z,1025.68
2023-01-05T12:12:33.934Z,1026.51
2023-01-05T12:13:33.946Z,1027.69
2023-01-05T12:14:33.937Z,1028.3
2023-01-05T12:15:33.940Z,1028.65
2023-01-05T12:16:33.985Z,1028.57
2023-01-05T12:17:33.946Z,1028.71
2023-01-05T12:18:33.963Z,1029.13
2023-01-05T12:19:33.944Z,1029.16
2023-01-05T12:20:33.943Z,1028.91
2023-01-05T12:21:33.948Z,1029.1
2023-01-05T12:22:34.077Z,1028.89
2023-01-05T12:23:34.030Z,1028.88
2023-01-05T12:24:33.979Z,1028.96
2023-01-05T12:25:33.951Z,1028.82
2023-01-05T12:26:33.953Z,1029.76